createdAt,value
2022-07-28T00:00:13.943Z,15.80
2022-07-28T00:02:41.898Z,15.80
2022-07-28T00:05:10.427Z,15.80
2022-07-28T00:07:39.689Z,15.80
2022-07-28T00:10:08.748Z,15.70
2022-07-28T00:12:36.720Z,15.70
2022-07-28T00:15:06.066Z,15.70
2022-07-28T00:17:34.092Z,15.70
2022-07-28T00:20:02.084Z,15.60
2022-07-28T00:22:30.057Z,15.60
2022-07-28T00:24:59.369Z,15.50
2022-07-28T00:27:27.310Z,15.50
2022-07-28T00:29:55.197Z,15.40
2022-07-28T00:32:23.208Z,15.40
2022-07-28T00:34:53.524Z,15.40
2022-07-28T00:37:21.822Z,15.30
2022-07-28T00:39:49.783Z,15.30
2022-07-28T00:42:20.563Z,15.30
2022-07-28T00:44:49.146Z,15.30
2022-07-28T00:47:17.246Z,15.20
2022-07-28T00:49:45.955Z,15.10
2022-07-28T00:52:17.246Z,15.10
2022-07-28T00:54:45.504Z,15.10
2022-07-28T00:57:13.515Z,15.10
2022-07-28T00:59:43.576Z,15.10
2022-07-28T01:02:11.615Z,15.40
2022-07-28T01:04:39.917Z,15.00
2022-07-28T01:07:28.142Z,15.00
2022-07-28T01:10:04.231Z,15.00
2022-07-28T01:12:42.050Z,15.10
2022-07-28T01:15:20.546Z,15.00
2022-07-28T01:17:55.687Z,14.90
2022-07-28T01:20:28.370Z,14.90
2022-07-28T01:23:06.707Z,14.90
2022-07-28T01:25:48.521Z,14.90
2022-07-28T01:28:25.843Z,14.90
2022-07-28T01:30:58.620Z,14.90
2022-07-28T01:33:32.315Z,14.90
2022-07-28T01:36:07.760Z,14.80
2022-07-28T01:38:38.087Z,14.80
2022-07-28T01:41:08.547Z,14.80
2022-07-28T01:43:40.049Z,14.80
2022-07-28T01:46:11.696Z,14.70
2022-07-28T01:48:42.397Z,14.70
2022-07-28T01:51:11.119Z,14.70
2022-07-28T01:53:41.091Z,14.70
2022-07-28T01:56:09.855Z,14.60
2022-07-28T01:58:39.726Z,14.70
2022-07-28T02:01:11.040Z,14.80
2022-07-28T02:03:40.486Z,14.60
2022-07-28T02:06:09.843Z,14.60
2022-07-28T02:08:40.228Z,14.70
2022-07-28T02:11:26.610Z,14.60
2022-07-28T02:13:57.531Z,14.60
2022-07-28T02:16:28.482Z,14.60
2022-07-28T02:18:58.176Z,14.60
2022-07-28T02:21:27.627Z,14.60
2022-07-28T02:23:57.314Z,14.60
2022-07-28T02:26:33.367Z,14.60
2022-07-28T02:29:04.215Z,14.60
2022-07-28T02:31:41.964Z,14.50
2022-07-28T02:34:13.786Z,14.80
2022-07-28T02:36:48.416Z,14.60
2022-07-28T02:39:21.568Z,14.50
2022-07-28T02:41:51.647Z,14.50
2022-07-28T02:44:25.818Z,14.40
2022-07-28T02:46:57.149Z,14.40
2022-07-28T02:49:29.437Z,14.40
2022-07-28T02:51:59.302Z,14.30
2022-07-28T02:54:28.824Z,14.30
2022-07-28T02:56:59.386Z,15.20
2022-07-28T02:59:29.397Z,14.30
2022-07-28T03:02:00.327Z,14.30
2022-07-28T03:05:01.719Z,14.20
2022-07-28T03:07:30.695Z,14.20
2022-07-28T03:09:59.743Z,14.10
2022-07-28T03:12:28.226Z,14.10
2022-07-28T03:14:56.490Z,14.10
2022-07-28T03:17:25.762Z,14.10
2022-07-28T03:19:53.777Z,14.00
2022-07-28T03:22:21.814Z,14.00
2022-07-28T03:24:52.892Z,13.90
2022-07-28T03:27:25.766Z,13.90
2022-07-28T03:30:03.155Z,13.90
2022-07-28T03:32:35.878Z,13.90
2022-07-28T03:35:04.119Z,13.80
2022-07-28T03:37:38.825Z,13.70
2022-07-28T03:40:11.135Z,13.80
2022-07-28T03:42:39.479Z,13.70
2022-07-28T03:45:08.217Z,13.70
2022-07-28T03:47:37.539Z,13.70
2022-07-28T03:50:06.306Z,13.60
2022-07-28T03:52:34.255Z,13.60
2022-07-28T03:55:02.126Z,13.50
2022-07-28T03:57:30.040Z,13.50
2022-07-28T03:59:57.978Z,13.50
2022-07-28T04:02:25.929Z,13.50
2022-07-28T04:04:55.214Z,13.40
2022-07-28T04:07:23.150Z,13.50
2022-07-28T04:09:51.053Z,13.40
2022-07-28T04:12:19.110Z,13.30
2022-07-28T04:14:47.014Z,13.30
2022-07-28T04:17:14.891Z,13.30
2022-07-28T04:19:42.821Z,13.30
2022-07-28T04:22:12.080Z,13.30
2022-07-28T04:24:39.967Z,13.30
2022-07-28T04:27:08.563Z,13.50
2022-07-28T04:29:36.477Z,13.30
2022-07-28T04:32:04.562Z,13.50
2022-07-28T04:34:32.476Z,13.30
2022-07-28T04:37:00.417Z,13.30
2022-07-28T04:39:29.889Z,13.30
2022-07-28T04:41:57.790Z,13.30
2022-07-28T04:44:25.708Z,13.30
2022-07-28T04:46:53.639Z,13.30
2022-07-28T04:49:21.591Z,13.30
2022-07-28T04:51:52.378Z,13.30
2022-07-28T04:54:26.083Z,13.30
2022-07-28T04:56:55.866Z,13.40
2022-07-28T04:59:24.052Z,13.40
2022-07-28T05:01:52.762Z,13.40
2022-07-28T05:04:20.786Z,13.40
2022-07-28T05:06:48.708Z,13.40
2022-07-28T05:09:16.643Z,13.40
2022-07-28T05:11:45.079Z,13.40
2022-07-28T05:14:14.970Z,13.40
2022-07-28T05:16:43.253Z,13.40
2022-07-28T05:19:14.359Z,13.50
2022-07-28T05:21:42.415Z,13.50
2022-07-28T05:24:10.679Z,13.50
2022-07-28T05:26:38.771Z,13.50
2022-07-28T05:29:06.832Z,14.10
2022-07-28T05:31:36.203Z,13.60
2022-07-28T05:34:04.367Z,12.70
2022-07-28T05:36:32.303Z,13.60
2022-07-28T05:39:00.210Z,13.60
2022-07-28T05:41:28.227Z,13.70
2022-07-28T05:43:57.515Z,13.70
2022-07-28T05:46:25.580Z,13.70
2022-07-28T05:48:54.975Z,13.70
2022-07-28T05:51:23.027Z,13.70
2022-07-28T05:53:51.009Z,13.70
2022-07-28T05:56:18.956Z,13.70
2022-07-28T05:58:46.850Z,13.80
2022-07-28T06:01:14.880Z,13.80
2022-07-28T06:03:42.859Z,13.80
2022-07-28T06:06:14.711Z,13.80
2022-07-28T06:08:45.700Z,13.90
2022-07-28T06:11:21.723Z,13.90
2022-07-28T06:13:51.846Z,13.90
2022-07-28T06:16:21.022Z,13.90
2022-07-28T06:18:49.250Z,14.00
2022-07-28T06:21:18.557Z,14.00
2022-07-28T06:23:46.485Z,14.10
2022-07-28T06:26:14.392Z,14.10
2022-07-28T06:28:42.301Z,14.10
2022-07-28T06:31:10.329Z,14.20
2022-07-28T06:33:38.425Z,14.20
2022-07-28T06:36:06.716Z,14.30
2022-07-28T06:38:36.131Z,14.30
2022-07-28T06:41:04.152Z,14.40
2022-07-28T06:43:36.795Z,14.40
2022-07-28T06:46:06.953Z,14.40
2022-07-28T06:48:37.597Z,14.50
2022-07-28T06:51:05.916Z,14.60
2022-07-28T06:53:35.210Z,14.70
2022-07-28T06:56:04.353Z,14.70
2022-07-28T06:58:32.414Z,14.80
2022-07-28T07:01:00.410Z,14.90
2022-07-28T07:03:28.486Z,15.00
2022-07-28T07:05:57.478Z,15.10
2022-07-28T07:08:25.419Z,15.20
2022-07-28T07:10:55.063Z,15.30
2022-07-28T07:13:23.028Z,15.30
2022-07-28T07:15:51.006Z,15.40
2022-07-28T07:18:18.960Z,15.50
2022-07-28T07:20:46.909Z,15.50
2022-07-28T07:23:15.252Z,15.60
2022-07-28T07:25:43.168Z,15.80
2022-07-28T07:28:12.391Z,15.80
2022-07-28T07:30:40.319Z,15.80
2022-07-28T07:33:10.751Z,16.10
2022-07-28T07:35:39.141Z,16.10
2022-07-28T07:38:07.144Z,16.20
2022-07-28T07:40:35.244Z,16.30
2022-07-28T07:43:03.198Z,16.30
2022-07-28T07:45:34.277Z,16.40
2022-07-28T07:48:02.699Z,16.50
2022-07-28T07:50:31.308Z,16.60
2022-07-28T07:52:59.273Z,16.80
2022-07-28T07:55:27.218Z,16.80
2022-07-28T07:58:02.499Z,16.90
2022-07-28T08:00:32.041Z,17.70
2022-07-28T08:03:00.967Z,17.00
2022-07-28T08:05:34.822Z,17.10
2022-07-28T08:08:04.773Z,17.20
2022-07-28T08:10:32.980Z,17.30
2022-07-28T08:13:01.024Z,17.30
2022-07-28T08:15:29.033Z,17.50
2022-07-28T08:17:58.278Z,17.50
2022-07-28T08:20:26.475Z,17.60
2022-07-28T08:22:57.320Z,17.70
2022-07-28T08:25:25.763Z,17.90
2022-07-28T08:27:53.682Z,17.80
2022-07-28T08:30:23.661Z,17.80
2022-07-28T08:32:56.724Z,17.90
2022-07-28T08:35:33.549Z,17.90
2022-07-28T08:38:03.319Z,18.00
2022-07-28T08:40:32.715Z,18.00
2022-07-28T08:43:04.860Z,18.20
2022-07-28T08:45:37.174Z,18.30
2022-07-28T08:48:08.647Z,18.40
2022-07-28T08:50:39.247Z,18.40
2022-07-28T08:53:08.620Z,18.40
2022-07-28T08:55:37.756Z,18.50
2022-07-28T08:58:06.075Z,18.60
2022-07-28T09:00:34.244Z,18.70
2022-07-28T09:03:04.675Z,18.80
2022-07-28T09:05:33.574Z,18.80
2022-07-28T09:08:03.885Z,18.90
2022-07-28T09:10:32.169Z,19.00
2022-07-28T09:13:00.125Z,19.10
2022-07-28T09:15:28.186Z,19.10
2022-07-28T09:17:56.670Z,19.10
2022-07-28T09:20:25.630Z,19.20
2022-07-28T09:22:59.275Z,19.20
2022-07-28T09:25:29.912Z,19.30
2022-07-28T09:28:06.069Z,19.40
2022-07-28T09:30:36.564Z,19.30
2022-07-28T09:33:41.021Z,19.60
2022-07-28T09:36:04.566Z,19.70
2022-07-28T09:38:42.055Z,19.70
2022-07-28T09:41:11.889Z,19.80
2022-07-28T09:43:42.325Z,19.80
2022-07-28T09:46:12.481Z,19.90
2022-07-28T09:48:54.067Z,20.00
2022-07-28T09:51:24.903Z,20.10
2022-07-28T09:53:54.236Z,20.20
2022-07-28T09:56:26.132Z,20.30
2022-07-28T09:58:55.702Z,20.40
2022-07-28T10:01:25.429Z,20.50
2022-07-28T10:03:58.215Z,20.60
2022-07-28T10:06:33.641Z,20.70
2022-07-28T10:09:03.229Z,20.80
2022-07-28T10:11:35.396Z,20.90
2022-07-28T10:14:08.039Z,21.10
2022-07-28T10:16:38.496Z,21.20
2022-07-28T10:19:07.038Z,21.30
2022-07-28T10:21:39.328Z,21.30
2022-07-28T10:24:07.994Z,21.30
2022-07-28T10:26:40.104Z,21.50
2022-07-28T10:29:08.816Z,21.70
2022-07-28T10:31:45.230Z,21.70
2022-07-28T10:34:24.945Z,21.70
2022-07-28T10:36:55.604Z,21.90
2022-07-28T10:39:25.172Z,21.90
2022-07-28T10:41:55.208Z,22.00
2022-07-28T10:44:23.802Z,22.20
2022-07-28T10:46:53.079Z,22.20
2022-07-28T10:49:21.844Z,22.40
2022-07-28T10:52:06.696Z,22.50
2022-07-28T10:54:50.099Z,22.50
2022-07-28T10:57:19.870Z,22.60
2022-07-28T11:00:25.904Z,22.70
2022-07-28T11:02:58.747Z,22.80
2022-07-28T11:05:36.381Z,22.90
2022-07-28T11:08:09.548Z,22.90
2022-07-28T11:10:48.613Z,23.10
2022-07-28T11:13:29.998Z,23.00
2022-07-28T11:16:20.367Z,23.10
2022-07-28T11:19:36.546Z,23.20
2022-07-28T11:22:22.798Z,23.30
2022-07-28T11:25:19.297Z,23.30
2022-07-28T11:28:04.439Z,23.60
2022-07-28T11:30:56.147Z,23.90
2022-07-28T11:33:27.560Z,24.10
2022-07-28T11:35:57.487Z,24.10
2022-07-28T11:38:25.933Z,24.30
2022-07-28T11:40:56.062Z,24.40
2022-07-28T11:43:36.920Z,24.50
2022-07-28T11:46:37.321Z,24.50
2022-07-28T11:49:17.919Z,24.60
2022-07-28T11:52:23.370Z,24.40
2022-07-28T11:54:56.878Z,24.70
2022-07-28T11:57:27.058Z,24.70
2022-07-28T12:00:00.261Z,25.00
2022-07-28T12:02:32.272Z,25.20
2022-07-28T12:05:09.855Z,25.30
2022-07-28T12:07:40.805Z,25.20
2022-07-28T12:10:53.821Z,25.50
2022-07-28T12:13:26.965Z,25.80
2022-07-28T12:15:54.894Z,26.10
2022-07-28T12:18:24.895Z,26.20
2022-07-28T12:20:54.706Z,26.50
2022-07-28T12:23:39.103Z,26.60
2022-07-28T12:26:31.431Z,26.40
2022-07-28T12:29:00.171Z,26.40
2022-07-28T12:31:32.918Z,26.50
2022-07-28T12:34:02.955Z,26.60
2022-07-28T12:36:31.113Z,26.50
2022-07-28T12:39:00.221Z,26.70
2022-07-28T12:41:33.760Z,26.70
2022-07-28T12:44:05.803Z,26.50
2022-07-28T12:46:34.214Z,26.80
2022-07-28T12:49:04.006Z,27.20
2022-07-28T12:51:37.937Z,27.50
2022-07-28T12:54:07.766Z,27.30
2022-07-28T12:56:46.322Z,27.50
2022-07-28T12:59:15.137Z,27.60
2022-07-28T13:01:47.954Z,27.70
2022-07-28T13:04:18.402Z,27.80
2022-07-28T13:06:56.822Z,27.90
2022-07-28T13:09:35.193Z,27.80
2022-07-28T13:12:03.909Z,27.70
2022-07-28T13:14:41.132Z,27.50
2022-07-28T13:17:09.190Z,27.10
2022-07-28T13:19:38.617Z,26.90
2022-07-28T13:22:09.320Z,26.70
2022-07-28T13:24:37.347Z,26.70
2022-07-28T13:27:06.882Z,26.50
2022-07-28T13:29:35.796Z,26.60
2022-07-28T13:32:03.843Z,26.60
2022-07-28T13:34:31.798Z,26.60
2022-07-28T13:37:01.267Z,26.50
2022-07-28T13:39:29.146Z,26.40
2022-07-28T13:41:59.282Z,26.50
2022-07-28T13:44:27.736Z,27.10
2022-07-28T13:46:56.643Z,27.70
2022-07-28T13:49:27.752Z,28.00
2022-07-28T13:51:55.802Z,27.80
2022-07-28T13:54:25.116Z,27.70
2022-07-28T13:56:53.666Z,27.70
2022-07-28T13:59:22.087Z,27.50
2022-07-28T14:01:50.229Z,27.10
2022-07-28T14:04:19.289Z,27.00
2022-07-28T14:06:49.912Z,26.80
2022-07-28T14:09:20.951Z,27.00
2022-07-28T14:11:53.664Z,27.20
2022-07-28T14:14:23.791Z,26.90
2022-07-28T14:16:53.019Z,27.20
2022-07-28T14:19:23.085Z,27.40
2022-07-28T14:22:10.721Z,27.30
2022-07-28T14:24:41.529Z,27.20
2022-07-28T14:27:11.280Z,27.30
2022-07-28T14:29:39.408Z,27.20
2022-07-28T14:32:07.815Z,27.10
2022-07-28T14:34:35.751Z,26.80
2022-07-28T14:37:08.593Z,26.80
2022-07-28T14:39:37.559Z,26.60
2022-07-28T14:42:05.772Z,26.70
2022-07-28T14:44:35.863Z,26.70
2022-07-28T14:47:04.323Z,26.70
2022-07-28T14:49:32.243Z,26.60
2022-07-28T14:52:00.238Z,26.60
2022-07-28T14:54:28.720Z,26.30
2022-07-28T14:56:57.124Z,26.40
2022-07-28T14:59:25.109Z,26.30
2022-07-28T15:01:56.566Z,26.20
2022-07-28T15:04:25.461Z,26.00
2022-07-28T15:06:53.722Z,25.90
2022-07-28T15:09:22.043Z,26.10
2022-07-28T15:11:49.926Z,25.90
2022-07-28T15:14:20.360Z,25.90
2022-07-28T15:16:49.160Z,25.90
2022-07-28T15:19:18.528Z,25.70
2022-07-28T15:21:47.543Z,25.70
2022-07-28T15:24:16.092Z,25.80
2022-07-28T15:26:44.486Z,25.70
2022-07-28T15:29:12.478Z,25.60
2022-07-28T15:31:42.564Z,25.50
2022-07-28T15:34:13.479Z,25.60
2022-07-28T15:36:43.081Z,25.50
2022-07-28T15:39:14.042Z,25.40
2022-07-28T15:41:42.995Z,25.40
2022-07-28T15:44:11.911Z,25.40
2022-07-28T15:46:40.222Z,25.30
2022-07-28T15:49:10.031Z,25.20
2022-07-28T15:51:38.709Z,25.30
2022-07-28T15:54:08.611Z,25.20
2022-07-28T15:56:37.721Z,25.10
2022-07-28T15:59:07.036Z,25.00
2022-07-28T16:01:35.304Z,24.90
2022-07-28T16:04:03.624Z,24.80
2022-07-28T16:06:45.582Z,24.60
2022-07-28T16:09:14.845Z,24.60
2022-07-28T16:11:42.828Z,24.60
2022-07-28T16:14:11.488Z,24.40
2022-07-28T16:16:39.569Z,24.30
2022-07-28T16:19:25.062Z,24.20
2022-07-28T16:21:56.691Z,24.10
2022-07-28T16:24:26.060Z,24.00
2022-07-28T16:26:54.018Z,24.00
2022-07-28T16:29:22.112Z,24.00
2022-07-28T16:31:50.198Z,23.60
2022-07-28T16:34:18.391Z,23.70
2022-07-28T16:36:46.490Z,23.70
2022-07-28T16:39:14.413Z,23.50
2022-07-28T16:41:47.726Z,23.40
2022-07-28T16:44:16.626Z,23.30
2022-07-28T16:46:44.928Z,23.20
2022-07-28T16:49:12.912Z,23.20
2022-07-28T16:51:40.844Z,23.20
2022-07-28T16:54:08.753Z,23.40
2022-07-28T16:56:36.639Z,23.50
2022-07-28T16:59:05.909Z,23.50
2022-07-28T17:01:33.859Z,23.70
2022-07-28T17:04:03.078Z,23.90
2022-07-28T17:06:31.199Z,23.90
2022-07-28T17:08:59.316Z,23.80
2022-07-28T17:11:27.194Z,23.70
2022-07-28T17:13:55.110Z,23.90
2022-07-28T17:16:24.447Z,23.80
2022-07-28T17:18:52.357Z,23.90
2022-07-28T17:21:20.249Z,23.70
2022-07-28T17:23:48.141Z,23.80
2022-07-28T17:27:30.583Z,23.90
2022-07-28T17:29:03.952Z,23.70
2022-07-28T17:31:33.828Z,23.70
2022-07-28T17:34:01.955Z,23.90
2022-07-28T17:36:33.888Z,23.70
2022-07-28T17:39:01.977Z,23.60
2022-07-28T17:41:30.074Z,23.50
2022-07-28T17:43:58.001Z,23.60
2022-07-28T17:46:26.651Z,23.70
2022-07-28T17:48:56.235Z,23.80
2022-07-28T17:51:24.204Z,24.00
2022-07-28T17:53:52.137Z,23.90
2022-07-28T17:56:22.775Z,23.90
2022-07-28T17:58:50.665Z,23.80
2022-07-28T18:01:18.654Z,23.80
2022-07-28T18:03:56.644Z,23.70
2022-07-28T18:06:30.524Z,23.60
2022-07-28T18:09:03.751Z,23.50
2022-07-28T18:11:34.654Z,23.40
2022-07-28T18:14:05.476Z,23.40
2022-07-28T18:16:34.153Z,23.20
2022-07-28T18:19:02.651Z,23.20
2022-07-28T18:21:32.118Z,23.10
2022-07-28T18:24:03.039Z,22.90
2022-07-28T18:26:30.960Z,22.90
2022-07-28T18:28:58.841Z,22.80
2022-07-28T18:31:28.027Z,22.80
2022-07-28T18:33:55.970Z,22.60
2022-07-28T18:36:23.902Z,22.60
2022-07-28T18:38:53.104Z,22.50
2022-07-28T18:41:21.246Z,22.40
2022-07-28T18:43:49.202Z,22.40
2022-07-28T18:46:17.197Z,22.40
2022-07-28T18:48:45.202Z,22.20
2022-07-28T18:51:16.906Z,22.00
2022-07-28T18:53:44.795Z,21.90
2022-07-28T18:56:14.054Z,21.90
2022-07-28T18:58:43.266Z,21.80
2022-07-28T19:01:13.380Z,21.70
2022-07-28T19:03:41.525Z,21.60
2022-07-28T19:06:09.431Z,21.50
2022-07-28T19:08:37.369Z,21.50
2022-07-28T19:11:05.298Z,21.40
2022-07-28T19:13:34.558Z,21.40
2022-07-28T19:16:02.673Z,21.30
2022-07-28T19:18:30.641Z,21.10
2022-07-28T19:20:58.795Z,21.00
2022-07-28T19:23:26.711Z,21.00
2022-07-28T19:25:54.598Z,21.00
2022-07-28T19:28:22.866Z,20.90
2022-07-28T19:30:52.765Z,20.80
2022-07-28T19:33:21.806Z,20.70
2022-07-28T19:35:52.568Z,20.70
2022-07-28T19:38:20.611Z,20.70
2022-07-28T19:40:48.612Z,21.40
2022-07-28T19:43:16.524Z,20.40
2022-07-28T19:45:44.506Z,20.40
2022-07-28T19:48:13.848Z,20.30
2022-07-28T19:50:48.554Z,20.30
2022-07-28T19:53:19.056Z,20.30
2022-07-28T19:55:51.460Z,20.10
2022-07-28T19:58:20.154Z,20.00
2022-07-28T20:00:49.682Z,19.90
2022-07-28T20:04:00.134Z,19.80
2022-07-28T20:06:09.776Z,19.80
2022-07-28T20:08:37.793Z,19.70
2022-07-28T20:11:05.715Z,19.60
2022-07-28T20:13:33.632Z,19.60
2022-07-28T20:16:01.559Z,19.50
2022-07-28T20:18:30.786Z,19.40
2022-07-28T20:20:58.775Z,19.50
2022-07-28T20:23:26.670Z,19.30
2022-07-28T20:25:54.650Z,19.30
2022-07-28T20:28:22.599Z,19.20
2022-07-28T20:30:50.670Z,19.10
2022-07-28T20:33:19.037Z,19.10
2022-07-28T20:35:48.324Z,19.00
2022-07-28T20:38:23.311Z,18.90
2022-07-28T20:40:51.607Z,18.90
2022-07-28T20:43:19.520Z,18.80
2022-07-28T20:45:48.405Z,18.80
2022-07-28T20:48:16.366Z,18.80
2022-07-28T20:50:44.314Z,18.80
2022-07-28T20:53:14.010Z,18.60
2022-07-28T20:55:41.899Z,19.00
2022-07-28T20:58:09.863Z,18.50
2022-07-28T21:00:38.991Z,18.60
2022-07-28T21:03:06.986Z,18.50
2022-07-28T21:05:35.799Z,18.30
2022-07-28T21:08:06.338Z,18.30
2022-07-28T21:10:38.923Z,18.30
2022-07-28T21:13:06.961Z,18.30
2022-07-28T21:15:34.922Z,18.30
2022-07-28T21:18:02.902Z,18.20
2022-07-28T21:20:30.838Z,18.20
2022-07-28T21:22:58.783Z,18.10
2022-07-28T21:25:26.689Z,18.10
2022-07-28T21:28:13.789Z,18.00
2022-07-28T21:30:41.757Z,18.10
2022-07-28T21:33:10.136Z,18.10
2022-07-28T21:35:38.117Z,17.90
2022-07-28T21:38:06.042Z,17.90
2022-07-28T21:40:34.583Z,17.90
2022-07-28T21:43:03.865Z,17.80
2022-07-28T21:45:31.910Z,18.00
2022-07-28T21:47:59.814Z,17.90
2022-07-28T21:50:28.210Z,17.80
2022-07-28T21:52:56.150Z,17.90
2022-07-28T21:55:24.107Z,17.70
2022-07-28T21:57:52.013Z,17.70
2022-07-28T22:00:22.737Z,17.70
2022-07-28T22:02:50.679Z,17.80
2022-07-28T22:05:19.272Z,17.70
2022-07-28T22:07:48.285Z,17.70
2022-07-28T22:10:17.435Z,17.60
2022-07-28T22:12:45.489Z,17.60
2022-07-28T22:15:13.587Z,17.80
2022-07-28T22:17:43.235Z,17.70
2022-07-28T22:20:12.341Z,17.60
2022-07-28T22:22:40.320Z,17.50
2022-07-28T22:25:09.115Z,17.70
2022-07-28T22:27:37.215Z,17.50
2022-07-28T22:30:06.389Z,17.50
2022-07-28T22:32:34.284Z,17.50
2022-07-28T22:35:03.635Z,17.70
2022-07-28T22:37:31.558Z,17.50
2022-07-28T22:39:59.463Z,17.50
2022-07-28T22:42:27.388Z,17.40
2022-07-28T22:44:55.415Z,17.40
2022-07-28T22:47:23.384Z,17.40
2022-07-28T22:49:53.679Z,17.40
2022-07-28T22:52:25.619Z,17.70
2022-07-28T22:57:40.907Z,17.30
2022-07-28T23:00:09.957Z,17.30
2022-07-28T23:02:37.969Z,17.30
2022-07-28T23:05:06.855Z,17.30
2022-07-28T23:07:52.788Z,17.30
2022-07-28T23:10:24.528Z,17.30
2022-07-28T23:12:52.442Z,17.30
2022-07-28T23:15:20.485Z,17.30
2022-07-28T23:17:48.422Z,17.20
2022-07-28T23:20:16.607Z,17.20
2022-07-28T23:22:45.961Z,17.20
2022-07-28T23:25:14.143Z,17.20
2022-07-28T23:27:42.112Z,17.30
2022-07-28T23:30:10.675Z,17.30
2022-07-28T23:32:38.779Z,17.20
2022-07-28T23:35:07.387Z,17.30
2022-07-28T23:37:35.449Z,17.20
2022-07-28T23:40:05.747Z,17.10
2022-07-28T23:42:33.839Z,17.20
2022-07-28T23:45:02.859Z,17.40
2022-07-28T23:47:30.775Z,17.10
2022-07-28T23:49:58.716Z,17.20
2022-07-28T23:52:26.648Z,17.10
2022-07-28T23:54:54.841Z,17.00
2022-07-28T23:57:24.144Z,17.70
2022-07-28T23:59:53.188Z,17.00
